sensor_id;sensor_type;location;lat;lon;timestamp;P1;P2;P0
55591;PMS5003;41454;53.396;-1.510;2023-07-31T00:01:08;1;1;
55591;PMS5003;41454;53.396;-1.510;2023-07-31T00:03:36;1;1;
55591;PMS5003;41454;53.396;-1.510;2023-07-31T00:06:03;0;0;
55591;PMS5003;41454;53.396;-1.510;2023-07-31T00:08:30;2;1;
55591;PMS5003;41454;53.396;-1.510;2023-07-31T00:10:58;2;2;
55591;PMS5003;41454;53.396;-1.510;2023-07-31T00:13:25;2;1;
55591;PMS5003;41454;53.396;-1.510;2023-07-31T00:15:53;1;1;
55591;PMS5003;41454;53.396;-1.510;2023-07-31T00:18:20;2;1;
55591;PMS5003;41454;53.396;-1.510;2023-07-31T00:20:48;1;1;
55591;PMS5003;41454;53.396;-1.510;2023-07-31T00:23:15;2;1;
55591;PMS5003;41454;53.396;-1.510;2023-07-31T00:25:43;1;1;
55591;PMS5003;41454;53.396;-1.510;2023-07-31T00:28:11;1;1;
55591;PMS5003;41454;53.396;-1.510;2023-07-31T00:30:38;2;1;
55591;PMS5003;41454;53.396;-1.510;2023-07-31T00:33:05;2;1;
55591;PMS5003;41454;53.396;-1.510;2023-07-31T00:35:33;2;2;
55591;PMS5003;41454;53.396;-1.510;2023-07-31T00:38:00;0;0;
55591;PMS5003;41454;53.396;-1.510;2023-07-31T00:40:28;3;1;
55591;PMS5003;41454;53.396;-1.510;2023-07-31T00:42:56;0;0;
55591;PMS5003;41454;53.396;-1.510;2023-07-31T00:45:23;1;1;
55591;PMS5003;41454;53.396;-1.510;2023-07-31T00:47:51;1;1;
55591;PMS5003;41454;53.396;-1.510;2023-07-31T00:50:18;0;0;
55591;PMS5003;41454;53.396;-1.510;2023-07-31T00:52:46;0;0;
55591;PMS5003;41454;53.396;-1.510;2023-07-31T00:55:13;1;1;
55591;PMS5003;41454;53.396;-1.510;2023-07-31T00:57:41;0;0;
55591;PMS5003;41454;53.396;-1.510;2023-07-31T01:00:09;0;0;
55591;PMS5003;41454;53.396;-1.510;2023-07-31T01:02:37;1;0;
55591;PMS5003;41454;53.396;-1.510;2023-07-31T01:05:05;1;1;
55591;PMS5003;41454;53.396;-1.510;2023-07-31T01:07:35;0;0;
55591;PMS5003;41454;53.396;-1.510;2023-07-31T01:10:16;0;0;
55591;PMS5003;41454;53.396;-1.510;2023-07-31T01:12:47;0;0;
55591;PMS5003;41454;53.396;-1.510;2023-07-31T01:15:17;0;0;
55591;PMS5003;41454;53.396;-1.510;2023-07-31T01:17:44;0;0;
55591;PMS5003;41454;53.396;-1.510;2023-07-31T01:20:12;0;0;
55591;PMS5003;41454;53.396;-1.510;2023-07-31T01:22:53;0;0;
55591;PMS5003;41454;53.396;-1.510;2023-07-31T01:25:45;0;0;
55591;PMS5003;41454;53.396;-1.510;2023-07-31T01:28:20;0;0;
55591;PMS5003;41454;53.396;-1.510;2023-07-31T01:30:52;0;0;
55591;PMS5003;41454;53.396;-1.510;2023-07-31T01:33:22;0;0;
55591;PMS5003;41454;53.396;-1.510;2023-07-31T01:35:49;0;0;
55591;PMS5003;41454;53.396;-1.510;2023-07-31T01:38:20;1;0;
55591;PMS5003;41454;53.396;-1.510;2023-07-31T01:40:50;0;0;
55591;PMS5003;41454;53.396;-1.510;2023-07-31T01:43:18;0;0;
55591;PMS5003;41454;53.396;-1.510;2023-07-31T01:45:45;1;1;
55591;PMS5003;41454;53.396;-1.510;2023-07-31T01:48:12;1;0;
55591;PMS5003;41454;53.396;-1.510;2023-07-31T01:50:40;0;0;
55591;PMS5003;41454;53.396;-1.510;2023-07-31T01:53:07;0;0;
55591;PMS5003;41454;53.396;-1.510;2023-07-31T01:55:34;0;0;
55591;PMS5003;41454;53.396;-1.510;2023-07-31T01:58:01;0;0;
55591;PMS5003;41454;53.396;-1.510;2023-07-31T02:00:27;0;0;
55591;PMS5003;41454;53.396;-1.510;2023-07-31T02:02:55;1;0;
55591;PMS5003;41454;53.396;-1.510;2023-07-31T02:05:22;0;0;
55591;PMS5003;41454;53.396;-1.510;2023-07-31T02:07:50;1;1;
55591;PMS5003;41454;53.396;-1.510;2023-07-31T02:10:17;1;1;
55591;PMS5003;41454;53.396;-1.510;2023-07-31T02:12:45;0;0;
55591;PMS5003;41454;53.396;-1.510;2023-07-31T02:15:12;1;1;
55591;PMS5003;41454;53.396;-1.510;2023-07-31T02:17:39;0;0;
55591;PMS5003;41454;53.396;-1.510;2023-07-31T02:20:08;0;0;
55591;PMS5003;41454;53.396;-1.510;2023-07-31T02:22:35;0;0;
55591;PMS5003;41454;53.396;-1.510;2023-07-31T02:25:02;1;1;
55591;PMS5003;41454;53.396;-1.510;2023-07-31T02:27:29;0;0;
55591;PMS5003;41454;53.396;-1.510;2023-07-31T02:29:57;1;1;
55591;PMS5003;41454;53.396;-1.510;2023-07-31T02:32:24;0;0;
55591;PMS5003;41454;53.396;-1.510;2023-07-31T02:34:52;1;1;
55591;PMS5003;41454;53.396;-1.510;2023-07-31T02:37:19;1;1;
55591;PMS5003;41454;53.396;-1.510;2023-07-31T02:39:47;1;1;
55591;PMS5003;41454;53.396;-1.510;2023-07-31T02:42:14;1;1;
55591;PMS5003;41454;53.396;-1.510;2023-07-31T02:44:42;0;0;
55591;PMS5003;41454;53.396;-1.510;2023-07-31T02:47:10;1;1;
55591;PMS5003;41454;53.396;-1.510;2023-07-31T02:49:37;1;0;
55591;PMS5003;41454;53.396;-1.510;2023-07-31T02:52:05;0;0;
55591;PMS5003;41454;53.396;-1.510;2023-07-31T02:54:32;1;1;
55591;PMS5003;41454;53.396;-1.510;2023-07-31T02:57:00;1;1;
55591;PMS5003;41454;53.396;-1.510;2023-07-31T02:59:27;0;0;
55591;PMS5003;41454;53.396;-1.510;2023-07-31T03:01:55;1;0;
55591;PMS5003;41454;53.396;-1.510;2023-07-31T03:04:22;1;1;
55591;PMS5003;41454;53.396;-1.510;2023-07-31T03:06:50;1;1;
55591;PMS5003;41454;53.396;-1.510;2023-07-31T03:09:16;1;1;
55591;PMS5003;41454;53.396;-1.510;2023-07-31T03:11:43;2;2;
55591;PMS5003;41454;53.396;-1.510;2023-07-31T03:14:11;0;0;
55591;PMS5003;41454;53.396;-1.510;2023-07-31T03:16:38;1;1;
55591;PMS5003;41454;53.396;-1.510;2023-07-31T03:19:06;0;0;
55591;PMS5003;41454;53.396;-1.510;2023-07-31T03:21:33;1;1;
55591;PMS5003;41454;53.396;-1.510;2023-07-31T03:24:00;1;1;
55591;PMS5003;41454;53.396;-1.510;2023-07-31T03:26:27;3;3;
55591;PMS5003;41454;53.396;-1.510;2023-07-31T03:28:53;2;2;
55591;PMS5003;41454;53.396;-1.510;2023-07-31T03:31:20;1;0;
55591;PMS5003;41454;53.396;-1.510;2023-07-31T03:33:47;1;1;
55591;PMS5003;41454;53.396;-1.510;2023-07-31T03:36:13;0;0;
55591;PMS5003;41454;53.396;-1.510;2023-07-31T03:38:41;3;2;
55591;PMS5003;41454;53.396;-1.510;2023-07-31T03:41:08;3;3;
55591;PMS5003;41454;53.396;-1.510;2023-07-31T03:43:36;2;2;
55591;PMS5003;41454;53.396;-1.510;2023-07-31T03:46:03;2;2;
55591;PMS5003;41454;53.396;-1.510;2023-07-31T03:48:30;2;2;
55591;PMS5003;41454;53.396;-1.510;2023-07-31T03:50:58;2;2;
55591;PMS5003;41454;53.396;-1.510;2023-07-31T03:53:24;3;3;
55591;PMS5003;41454;53.396;-1.510;2023-07-31T03:55:51;3;3;
55591;PMS5003;41454;53.396;-1.510;2023-07-31T03:58:18;1;1;
55591;PMS5003;41454;53.396;-1.510;2023-07-31T04:00:45;3;3;
55591;PMS5003;41454;53.396;-1.510;2023-07-31T04:03:13;3;3;
55591;PMS5003;41454;53.396;-1.510;2023-07-31T04:05:40;3;2;
55591;PMS5003;41454;53.396;-1.510;2023-07-31T04:08:07;2;2;
55591;PMS5003;41454;53.396;-1.510;2023-07-31T04:10:34;3;2;
55591;PMS5003;41454;53.396;-1.510;2023-07-31T04:13:01;3;3;
55591;PMS5003;41454;53.396;-1.510;2023-07-31T04:15:28;4;4;
55591;PMS5003;41454;53.396;-1.510;2023-07-31T04:17:54;4;4;
55591;PMS5003;41454;53.396;-1.510;2023-07-31T04:20:22;4;3;
55591;PMS5003;41454;53.396;-1.510;2023-07-31T04:22:49;7;6;
55591;PMS5003;41454;53.396;-1.510;2023-07-31T04:25:16;3;3;
55591;PMS5003;41454;53.396;-1.510;2023-07-31T04:27:44;2;2;
55591;PMS5003;41454;53.396;-1.510;2023-07-31T04:30:11;2;2;
55591;PMS5003;41454;53.396;-1.510;2023-07-31T04:32:39;4;3;
55591;PMS5003;41454;53.396;-1.510;2023-07-31T04:35:07;3;3;
55591;PMS5003;41454;53.396;-1.510;2023-07-31T04:37:34;4;3;
55591;PMS5003;41454;53.396;-1.510;2023-07-31T04:40:01;2;2;
55591;PMS5003;41454;53.396;-1.510;2023-07-31T04:42:27;6;4;
55591;PMS5003;41454;53.396;-1.510;2023-07-31T04:44:55;4;4;
55591;PMS5003;41454;53.396;-1.510;2023-07-31T04:47:22;4;4;
55591;PMS5003;41454;53.396;-1.510;2023-07-31T04:49:50;2;2;
55591;PMS5003;41454;53.396;-1.510;2023-07-31T04:52:17;3;3;
55591;PMS5003;41454;53.396;-1.510;2023-07-31T04:54:45;2;2;
55591;PMS5003;41454;53.396;-1.510;2023-07-31T04:57:12;3;3;
55591;PMS5003;41454;53.396;-1.510;2023-07-31T04:59:40;4;4;
55591;PMS5003;41454;53.396;-1.510;2023-07-31T05:02:08;5;4;
55591;PMS5003;41454;53.396;-1.510;2023-07-31T05:04:35;7;6;
55591;PMS5003;41454;53.396;-1.510;2023-07-31T05:07:02;4;4;
55591;PMS5003;41454;53.396;-1.510;2023-07-31T05:09:30;4;4;
55591;PMS5003;41454;53.396;-1.510;2023-07-31T05:11:56;7;6;
55591;PMS5003;41454;53.396;-1.510;2023-07-31T05:14:25;8;8;
55591;PMS5003;41454;53.396;-1.510;2023-07-31T05:16:52;5;5;
55591;PMS5003;41454;53.396;-1.510;2023-07-31T05:19:19;7;7;
55591;PMS5003;41454;53.396;-1.510;2023-07-31T05:21:46;7;7;
55591;PMS5003;41454;53.396;-1.510;2023-07-31T05:24:14;8;6;
55591;PMS5003;41454;53.396;-1.510;2023-07-31T05:26:41;7;7;
55591;PMS5003;41454;53.396;-1.510;2023-07-31T05:29:08;9;6;
55591;PMS5003;41454;53.396;-1.510;2023-07-31T05:31:35;8;7;
55591;PMS5003;41454;53.396;-1.510;2023-07-31T05:34:02;7;6;
55591;PMS5003;41454;53.396;-1.510;2023-07-31T05:36:28;5;5;
55591;PMS5003;41454;53.396;-1.510;2023-07-31T05:38:55;2;2;
55591;PMS5003;41454;53.396;-1.510;2023-07-31T05:41:23;5;4;
55591;PMS5003;41454;53.396;-1.510;2023-07-31T05:43:50;4;3;
55591;PMS5003;41454;53.396;-1.510;2023-07-31T05:46:18;2;2;
55591;PMS5003;41454;53.396;-1.510;2023-07-31T05:48:45;3;3;
55591;PMS5003;41454;53.396;-1.510;2023-07-31T05:51:12;0;0;
55591;PMS5003;41454;53.396;-1.510;2023-07-31T05:53:38;2;2;
55591;PMS5003;41454;53.396;-1.510;2023-07-31T05:56:05;1;0;
55591;PMS5003;41454;53.396;-1.510;2023-07-31T05:58:33;2;2;
55591;PMS5003;41454;53.396;-1.510;2023-07-31T06:01:00;2;1;
55591;PMS5003;41454;53.396;-1.510;2023-07-31T06:03:28;4;2;
55591;PMS5003;41454;53.396;-1.510;2023-07-31T06:05:54;2;2;
55591;PMS5003;41454;53.396;-1.510;2023-07-31T06:08:22;3;3;
55591;PMS5003;41454;53.396;-1.510;2023-07-31T06:10:50;1;1;
55591;PMS5003;41454;53.396;-1.510;2023-07-31T06:13:17;4;4;
55591;PMS5003;41454;53.396;-1.510;2023-07-31T06:15:45;4;4;
55591;PMS5003;41454;53.396;-1.510;2023-07-31T06:18:11;3;3;
55591;PMS5003;41454;53.396;-1.510;2023-07-31T06:20:39;1;1;
55591;PMS5003;41454;53.396;-1.510;2023-07-31T06:23:23;2;2;
55591;PMS5003;41454;53.396;-1.510;2023-07-31T06:25:49;2;2;
55591;PMS5003;41454;53.396;-1.510;2023-07-31T06:28:37;3;3;
55591;PMS5003;41454;53.396;-1.510;2023-07-31T06:31:04;6;4;
55591;PMS5003;41454;53.396;-1.510;2023-07-31T06:33:32;2;2;
55591;PMS5003;41454;53.396;-1.510;2023-07-31T06:39:52;4;4;
55591;PMS5003;41454;53.396;-1.510;2023-07-31T06:43:08;3;3;
55591;PMS5003;41454;53.396;-1.510;2023-07-31T06:45:51;4;4;
55591;PMS5003;41454;53.396;-1.510;2023-07-31T06:48:58;5;5;
55591;PMS5003;41454;53.396;-1.510;2023-07-31T06:51:26;5;4;
55591;PMS5003;41454;53.396;-1.510;2023-07-31T06:53:54;5;5;
55591;PMS5003;41454;53.396;-1.510;2023-07-31T06:56:21;5;5;
55591;PMS5003;41454;53.396;-1.510;2023-07-31T06:58:48;8;6;
55591;PMS5003;41454;53.396;-1.510;2023-07-31T07:01:16;5;5;
55591;PMS5003;41454;53.396;-1.510;2023-07-31T07:03:43;6;6;
55591;PMS5003;41454;53.396;-1.510;2023-07-31T07:06:09;6;6;
55591;PMS5003;41454;53.396;-1.510;2023-07-31T07:08:37;6;6;
55591;PMS5003;41454;53.396;-1.510;2023-07-31T07:11:04;3;3;
55591;PMS5003;41454;53.396;-1.510;2023-07-31T07:13:31;3;3;
55591;PMS5003;41454;53.396;-1.510;2023-07-31T07:15:59;4;4;
55591;PMS5003;41454;53.396;-1.510;2023-07-31T07:18:26;6;4;
55591;PMS5003;41454;53.396;-1.510;2023-07-31T07:20:54;4;4;
55591;PMS5003;41454;53.396;-1.510;2023-07-31T07:23:21;5;5;
55591;PMS5003;41454;53.396;-1.510;2023-07-31T07:25:48;7;4;
55591;PMS5003;41454;53.396;-1.510;2023-07-31T07:28:15;4;4;
55591;PMS5003;41454;53.396;-1.510;2023-07-31T07:30:42;6;5;
55591;PMS5003;41454;53.396;-1.510;2023-07-31T07:33:10;5;4;
55591;PMS5003;41454;53.396;-1.510;2023-07-31T07:35:36;5;4;
55591;PMS5003;41454;53.396;-1.510;2023-07-31T07:38:05;4;4;
55591;PMS5003;41454;53.396;-1.510;2023-07-31T07:40:32;2;2;
55591;PMS5003;41454;53.396;-1.510;2023-07-31T07:43:04;4;4;
55591;PMS5003;41454;53.396;-1.510;2023-07-31T07:45:32;4;4;
55591;PMS5003;41454;53.396;-1.510;2023-07-31T07:47:59;5;5;
55591;PMS5003;41454;53.396;-1.510;2023-07-31T07:50:27;6;4;
55591;PMS5003;41454;53.396;-1.510;2023-07-31T07:52:54;3;3;
55591;PMS5003;41454;53.396;-1.510;2023-07-31T07:55:22;4;4;
55591;PMS5003;41454;53.396;-1.510;2023-07-31T07:57:48;8;7;
55591;PMS5003;41454;53.396;-1.510;2023-07-31T08:00:16;4;4;
55591;PMS5003;41454;53.396;-1.510;2023-07-31T08:02:43;8;7;
55591;PMS5003;41454;53.396;-1.510;2023-07-31T08:05:10;9;7;
55591;PMS5003;41454;53.396;-1.510;2023-07-31T08:07:38;8;7;
55591;PMS5003;41454;53.396;-1.510;2023-07-31T08:10:06;7;7;
55591;PMS5003;41454;53.396;-1.510;2023-07-31T08:12:33;7;7;
55591;PMS5003;41454;53.396;-1.510;2023-07-31T08:15:01;9;9;
55591;PMS5003;41454;53.396;-1.510;2023-07-31T08:17:28;5;5;
55591;PMS5003;41454;53.396;-1.510;2023-07-31T08:19:56;7;7;
55591;PMS5003;41454;53.396;-1.510;2023-07-31T08:22:22;10;8;
55591;PMS5003;41454;53.396;-1.510;2023-07-31T08:24:49;7;6;
55591;PMS5003;41454;53.396;-1.510;2023-07-31T08:27:16;11;10;
55591;PMS5003;41454;53.396;-1.510;2023-07-31T08:29:44;11;8;
55591;PMS5003;41454;53.396;-1.510;2023-07-31T08:32:11;8;8;
55591;PMS5003;41454;53.396;-1.510;2023-07-31T08:34:38;7;5;
55591;PMS5003;41454;53.396;-1.510;2023-07-31T08:37:05;10;9;
55591;PMS5003;41454;53.396;-1.510;2023-07-31T08:39:32;12;12;
55591;PMS5003;41454;53.396;-1.510;2023-07-31T08:41:59;11;8;
55591;PMS5003;41454;53.396;-1.510;2023-07-31T08:44:27;13;9;
55591;PMS5003;41454;53.396;-1.510;2023-07-31T08:46:56;11;11;
55591;PMS5003;41454;53.396;-1.510;2023-07-31T08:49:23;10;10;
55591;PMS5003;41454;53.396;-1.510;2023-07-31T08:51:52;10;9;
55591;PMS5003;41454;53.396;-1.510;2023-07-31T08:54:21;9;8;
55591;PMS5003;41454;53.396;-1.510;2023-07-31T08:56:49;6;5;
55591;PMS5003;41454;53.396;-1.510;2023-07-31T08:59:19;7;7;
55591;PMS5003;41454;53.396;-1.510;2023-07-31T09:01:49;7;7;
55591;PMS5003;41454;53.396;-1.510;2023-07-31T09:04:19;6;6;
55591;PMS5003;41454;53.396;-1.510;2023-07-31T09:06:47;6;6;
55591;PMS5003;41454;53.396;-1.510;2023-07-31T09:09:16;8;8;
55591;PMS5003;41454;53.396;-1.510;2023-07-31T09:11:42;6;6;
55591;PMS5003;41454;53.396;-1.510;2023-07-31T09:14:10;8;6;
55591;PMS5003;41454;53.396;-1.510;2023-07-31T09:16:51;8;8;
55591;PMS5003;41454;53.396;-1.510;2023-07-31T09:19:24;6;6;
55591;PMS5003;41454;53.396;-1.510;2023-07-31T09:21:52;7;7;
55591;PMS5003;41454;53.396;-1.510;2023-07-31T09:24:24;6;6;
55591;PMS5003;41454;53.396;-1.510;2023-07-31T09:26:53;6;5;
55591;PMS5003;41454;53.396;-1.510;2023-07-31T09:29:21;6;3;
55591;PMS5003;41454;53.396;-1.510;2023-07-31T09:31:51;7;7;
55591;PMS5003;41454;53.396;-1.510;2023-07-31T09:34:18;4;4;
55591;PMS5003;41454;53.396;-1.510;2023-07-31T09:36:47;4;4;
55591;PMS5003;41454;53.396;-1.510;2023-07-31T09:39:17;7;7;
55591;PMS5003;41454;53.396;-1.510;2023-07-31T09:41:45;2;2;
55591;PMS5003;41454;53.396;-1.510;2023-07-31T09:44:14;5;5;
55591;PMS5003;41454;53.396;-1.510;2023-07-31T09:46:41;3;3;
55591;PMS5003;41454;53.396;-1.510;2023-07-31T09:49:08;4;4;
55591;PMS5003;41454;53.396;-1.510;2023-07-31T09:51:37;5;4;
55591;PMS5003;41454;53.396;-1.510;2023-07-31T09:54:10;4;4;
55591;PMS5003;41454;53.396;-1.510;2023-07-31T09:56:38;5;5;
55591;PMS5003;41454;53.396;-1.510;2023-07-31T09:59:11;5;4;
55591;PMS5003;41454;53.396;-1.510;2023-07-31T10:01:40;6;4;
55591;PMS5003;41454;53.396;-1.510;2023-07-31T10:04:09;5;5;
55591;PMS5003;41454;53.396;-1.510;2023-07-31T10:06:37;7;7;
55591;PMS5003;41454;53.396;-1.510;2023-07-31T10:09:07;6;5;
55591;PMS5003;41454;53.396;-1.510;2023-07-31T10:11:36;4;4;
55591;PMS5003;41454;53.396;-1.510;2023-07-31T10:14:08;5;3;
55591;PMS5003;41454;53.396;-1.510;2023-07-31T10:16:37;4;4;
55591;PMS5003;41454;53.396;-1.510;2023-07-31T10:19:05;6;6;
55591;PMS5003;41454;53.396;-1.510;2023-07-31T10:21:33;6;6;
55591;PMS5003;41454;53.396;-1.510;2023-07-31T10:24:02;10;10;
55591;PMS5003;41454;53.396;-1.510;2023-07-31T10:26:31;7;7;
55591;PMS5003;41454;53.396;-1.510;2023-07-31T10:28:58;5;5;
55591;PMS5003;41454;53.396;-1.510;2023-07-31T10:31:26;8;6;
55591;PMS5003;41454;53.396;-1.510;2023-07-31T10:33:54;7;5;
55591;PMS5003;41454;53.396;-1.510;2023-07-31T10:36:22;10;9;
55591;PMS5003;41454;53.396;-1.510;2023-07-31T10:38:50;11;7;
55591;PMS5003;41454;53.396;-1.510;2023-07-31T10:41:17;6;6;
55591;PMS5003;41454;53.396;-1.510;2023-07-31T10:43:45;8;8;
55591;PMS5003;41454;53.396;-1.510;2023-07-31T10:46:13;6;4;
55591;PMS5003;41454;53.396;-1.510;2023-07-31T10:48:41;6;6;
55591;PMS5003;41454;53.396;-1.510;2023-07-31T10:51:09;7;7;
55591;PMS5003;41454;53.396;-1.510;2023-07-31T10:53:37;11;8;
55591;PMS5003;41454;53.396;-1.510;2023-07-31T10:56:07;7;7;
55591;PMS5003;41454;53.396;-1.510;2023-07-31T10:58:36;7;7;
55591;PMS5003;41454;53.396;-1.510;2023-07-31T11:01:04;6;6;
55591;PMS5003;41454;53.396;-1.510;2023-07-31T11:03:44;6;5;
55591;PMS5003;41454;53.396;-1.510;2023-07-31T11:06:12;5;5;
55591;PMS5003;41454;53.396;-1.510;2023-07-31T11:08:41;6;6;
55591;PMS5003;41454;53.396;-1.510;2023-07-31T11:11:09;8;6;
55591;PMS5003;41454;53.396;-1.510;2023-07-31T11:13:41;3;2;
55591;PMS5003;41454;53.396;-1.510;2023-07-31T11:16:11;4;4;
55591;PMS5003;41454;53.396;-1.510;2023-07-31T11:18:41;4;4;
55591;PMS5003;41454;53.396;-1.510;2023-07-31T11:21:12;4;4;
55591;PMS5003;41454;53.396;-1.510;2023-07-31T11:23:41;5;5;
55591;PMS5003;41454;53.396;-1.510;2023-07-31T11:26:12;5;5;
55591;PMS5003;41454;53.396;-1.510;2023-07-31T11:28:40;5;5;
55591;PMS5003;41454;53.396;-1.510;2023-07-31T11:31:08;5;5;
55591;PMS5003;41454;53.396;-1.510;2023-07-31T11:33:36;4;3;
55591;PMS5003;41454;53.396;-1.510;2023-07-31T11:36:04;5;5;
55591;PMS5003;41454;53.396;-1.510;2023-07-31T11:38:31;4;4;
55591;PMS5003;41454;53.396;-1.510;2023-07-31T11:41:01;4;4;
55591;PMS5003;41454;53.396;-1.510;2023-07-31T11:43:29;6;6;
55591;PMS5003;41454;53.396;-1.510;2023-07-31T11:45:58;5;4;
55591;PMS5003;41454;53.396;-1.510;2023-07-31T11:48:27;7;7;
55591;PMS5003;41454;53.396;-1.510;2023-07-31T11:50:57;8;5;
55591;PMS5003;41454;53.396;-1.510;2023-07-31T11:53:25;7;5;
55591;PMS5003;41454;53.396;-1.510;2023-07-31T11:55:57;6;6;
55591;PMS5003;41454;53.396;-1.510;2023-07-31T11:58:25;10;10;
55591;PMS5003;41454;53.396;-1.510;2023-07-31T12:00:54;7;7;
55591;PMS5003;41454;53.396;-1.510;2023-07-31T12:03:22;6;6;
55591;PMS5003;41454;53.396;-1.510;2023-07-31T12:05:50;5;4;
55591;PMS5003;41454;53.396;-1.510;2023-07-31T12:08:20;9;7;
55591;PMS5003;41454;53.396;-1.510;2023-07-31T12:10:49;4;4;
55591;PMS5003;41454;53.396;-1.510;2023-07-31T12:13:20;8;5;
55591;PMS5003;41454;53.396;-1.510;2023-07-31T12:15:48;5;4;
55591;PMS5003;41454;53.396;-1.510;2023-07-31T12:18:20;6;6;
55591;PMS5003;41454;53.396;-1.510;2023-07-31T12:20:47;8;8;
55591;PMS5003;41454;53.396;-1.510;2023-07-31T12:23:17;4;4;
55591;PMS5003;41454;53.396;-1.510;2023-07-31T12:25:45;7;7;
55591;PMS5003;41454;53.396;-1.510;2023-07-31T12:28:13;7;5;
55591;PMS5003;41454;53.396;-1.510;2023-07-31T12:30:40;6;5;
55591;PMS5003;41454;53.396;-1.510;2023-07-31T12:33:13;8;6;
55591;PMS5003;41454;53.396;-1.510;2023-07-31T12:35:41;5;5;
55591;PMS5003;41454;53.396;-1.510;2023-07-31T12:38:10;7;6;
55591;PMS5003;41454;53.396;-1.510;2023-07-31T12:40:38;4;4;
55591;PMS5003;41454;53.396;-1.510;2023-07-31T12:43:06;6;6;
55591;PMS5003;41454;53.396;-1.510;2023-07-31T12:45:34;7;6;
55591;PMS5003;41454;53.396;-1.510;2023-07-31T12:48:02;7;7;
55591;PMS5003;41454;53.396;-1.510;2023-07-31T12:50:29;6;5;
55591;PMS5003;41454;53.396;-1.510;2023-07-31T12:52:57;5;5;
55591;PMS5003;41454;53.396;-1.510;2023-07-31T12:55:24;6;6;
55591;PMS5003;41454;53.396;-1.510;2023-07-31T12:57:52;7;5;
55591;PMS5003;41454;53.396;-1.510;2023-07-31T13:00:19;4;3;
55591;PMS5003;41454;53.396;-1.510;2023-07-31T13:02:46;5;5;
55591;PMS5003;41454;53.396;-1.510;2023-07-31T13:05:14;6;6;
55591;PMS5003;41454;53.396;-1.510;2023-07-31T13:07:41;10;6;
55591;PMS5003;41454;53.396;-1.510;2023-07-31T13:10:08;4;4;
55591;PMS5003;41454;53.396;-1.510;2023-07-31T13:12:35;6;5;
55591;PMS5003;41454;53.396;-1.510;2023-07-31T13:15:03;8;8;
55591;PMS5003;41454;53.396;-1.510;2023-07-31T13:17:31;5;5;
55591;PMS5003;41454;53.396;-1.510;2023-07-31T13:19:59;6;6;
55591;PMS5003;41454;53.396;-1.510;2023-07-31T13:22:26;5;5;
55591;PMS5003;41454;53.396;-1.510;2023-07-31T13:24:54;6;5;
55591;PMS5003;41454;53.396;-1.510;2023-07-31T13:27:20;7;7;
55591;PMS5003;41454;53.396;-1.510;2023-07-31T13:29:48;5;4;
55591;PMS5003;41454;53.396;-1.510;2023-07-31T13:32:15;6;5;
55591;PMS5003;41454;53.396;-1.510;2023-07-31T13:34:43;5;5;
55591;PMS5003;41454;53.396;-1.510;2023-07-31T13:37:11;10;9;
55591;PMS5003;41454;53.396;-1.510;2023-07-31T13:39:37;5;5;
55591;PMS5003;41454;53.396;-1.510;2023-07-31T13:42:05;5;5;
55591;PMS5003;41454;53.396;-1.510;2023-07-31T13:44:33;5;5;
55591;PMS5003;41454;53.396;-1.510;2023-07-31T13:47:01;6;6;
55591;PMS5003;41454;53.396;-1.510;2023-07-31T13:49:29;5;5;
55591;PMS5003;41454;53.396;-1.510;2023-07-31T13:51:56;8;5;
55591;PMS5003;41454;53.396;-1.510;2023-07-31T13:54:24;5;5;
55591;PMS5003;41454;53.396;-1.510;2023-07-31T13:56:51;5;4;
55591;PMS5003;41454;53.396;-1.510;2023-07-31T13:59:19;6;5;
55591;PMS5003;41454;53.396;-1.510;2023-07-31T14:01:46;6;6;
55591;PMS5003;41454;53.396;-1.510;2023-07-31T14:04:14;6;5;
55591;PMS5003;41454;53.396;-1.510;2023-07-31T14:06:41;5;5;
55591;PMS5003;41454;53.396;-1.510;2023-07-31T14:09:08;5;4;
55591;PMS5003;41454;53.396;-1.510;2023-07-31T14:11:35;5;4;
55591;PMS5003;41454;53.396;-1.510;2023-07-31T14:14:01;4;2;
55591;PMS5003;41454;53.396;-1.510;2023-07-31T14:16:28;7;7;
55591;PMS5003;41454;53.396;-1.510;2023-07-31T14:18:55;4;4;
55591;PMS5003;41454;53.396;-1.510;2023-07-31T14:21:21;5;5;
55591;PMS5003;41454;53.396;-1.510;2023-07-31T14:23:49;3;3;
55591;PMS5003;41454;53.396;-1.510;2023-07-31T14:26:16;3;3;
55591;PMS5003;41454;53.396;-1.510;2023-07-31T14:28:44;4;4;
55591;PMS5003;41454;53.396;-1.510;2023-07-31T14:31:12;5;3;
55591;PMS5003;41454;53.396;-1.510;2023-07-31T14:33:39;6;4;
55591;PMS5003;41454;53.396;-1.510;2023-07-31T14:36:06;5;4;
55591;PMS5003;41454;53.396;-1.510;2023-07-31T14:38:33;10;6;
55591;PMS5003;41454;53.396;-1.510;2023-07-31T14:41:01;7;6;
55591;PMS5003;41454;53.396;-1.510;2023-07-31T14:43:28;5;5;
55591;PMS5003;41454;53.396;-1.510;2023-07-31T14:45:56;4;4;
55591;PMS5003;41454;53.396;-1.510;2023-07-31T14:48:23;2;2;
55591;PMS5003;41454;53.396;-1.510;2023-07-31T14:50:50;5;4;
55591;PMS5003;41454;53.396;-1.510;2023-07-31T14:53:17;2;2;
55591;PMS5003;41454;53.396;-1.510;2023-07-31T14:55:45;4;4;
55591;PMS5003;41454;53.396;-1.510;2023-07-31T14:58:12;3;3;
55591;PMS5003;41454;53.396;-1.510;2023-07-31T15:00:39;4;4;
55591;PMS5003;41454;53.396;-1.510;2023-07-31T15:03:07;6;3;
55591;PMS5003;41454;53.396;-1.510;2023-07-31T15:05:33;6;5;
55591;PMS5003;41454;53.396;-1.510;2023-07-31T15:08:01;3;3;
55591;PMS5003;41454;53.396;-1.510;2023-07-31T15:10:28;3;3;
55591;PMS5003;41454;53.396;-1.510;2023-07-31T15:12:56;2;2;
55591;PMS5003;41454;53.396;-1.510;2023-07-31T15:15:23;4;4;
55591;PMS5003;41454;53.396;-1.510;2023-07-31T15:17:51;4;4;
55591;PMS5003;41454;53.396;-1.510;2023-07-31T15:20:18;3;3;
55591;PMS5003;41454;53.396;-1.510;2023-07-31T15:22:44;4;4;
55591;PMS5003;41454;53.396;-1.510;2023-07-31T15:25:11;3;3;
55591;PMS5003;41454;53.396;-1.510;2023-07-31T15:27:39;4;4;
55591;PMS5003;41454;53.396;-1.510;2023-07-31T15:30:06;3;3;
55591;PMS5003;41454;53.396;-1.510;2023-07-31T15:32:35;5;4;
55591;PMS5003;41454;53.396;-1.510;2023-07-31T15:35:04;4;4;
55591;PMS5003;41454;53.396;-1.510;2023-07-31T15:37:31;3;3;
55591;PMS5003;41454;53.396;-1.510;2023-07-31T15:39:59;3;2;
55591;PMS5003;41454;53.396;-1.510;2023-07-31T15:42:26;1;1;
55591;PMS5003;41454;53.396;-1.510;2023-07-31T15:44:54;0;0;
55591;PMS5003;41454;53.396;-1.510;2023-07-31T15:47:21;0;0;
55591;PMS5003;41454;53.396;-1.510;2023-07-31T15:49:49;0;0;
55591;PMS5003;41454;53.396;-1.510;2023-07-31T15:52:16;0;0;
55591;PMS5003;41454;53.396;-1.510;2023-07-31T15:54:44;0;0;
55591;PMS5003;41454;53.396;-1.510;2023-07-31T15:57:11;0;0;
55591;PMS5003;41454;53.396;-1.510;2023-07-31T15:59:39;0;0;
55591;PMS5003;41454;53.396;-1.510;2023-07-31T16:02:07;2;2;
55591;PMS5003;41454;53.396;-1.510;2023-07-31T16:04:36;0;0;
55591;PMS5003;41454;53.396;-1.510;2023-07-31T16:07:04;0;0;
55591;PMS5003;41454;53.396;-1.510;2023-07-31T16:09:31;0;0;
55591;PMS5003;41454;53.396;-1.510;2023-07-31T16:11:58;2;2;
55591;PMS5003;41454;53.396;-1.510;2023-07-31T16:14:25;0;0;
55591;PMS5003;41454;53.396;-1.510;2023-07-31T16:16:52;0;0;
55591;PMS5003;41454;53.396;-1.510;2023-07-31T16:19:19;1;1;
55591;PMS5003;41454;53.396;-1.510;2023-07-31T16:21:47;1;1;
55591;PMS5003;41454;53.396;-1.510;2023-07-31T16:24:14;1;1;
55591;PMS5003;41454;53.396;-1.510;2023-07-31T16:26:42;1;1;
55591;PMS5003;41454;53.396;-1.510;2023-07-31T16:29:09;0;0;
55591;PMS5003;41454;53.396;-1.510;2023-07-31T16:31:37;1;1;
55591;PMS5003;41454;53.396;-1.510;2023-07-31T16:34:04;1;1;
55591;PMS5003;41454;53.396;-1.510;2023-07-31T16:36:32;0;0;
55591;PMS5003;41454;53.396;-1.510;2023-07-31T16:38:59;0;0;
55591;PMS5003;41454;53.396;-1.510;2023-07-31T16:41:27;1;0;
55591;PMS5003;41454;53.396;-1.510;2023-07-31T16:43:54;0;0;